Time;durP1;ratioP1;P1;durP2;ratioP2;P2;SDS_P1;SDS_P2;PMS_P1;PMS_P2;Temp;Humidity;BMP_temperature;BMP_pressure;BME280_temperature;BME280_humidity;BME280_pressure;Samples;Min_cycle;Max_cycle;Signal;HPM_P1;HPM_P2
2022/11/16 00:01:21;;;;;;;26.20;13.77;;;;;;;;;;6242720;23;20325;-78
2022/11/16 00:03:47;;;;;;;25.30;13.60;;;;;;;;;;6244632;22;20000;-77
2022/11/16 00:06:13;;;;;;;25.17;13.52;;;;;;;;;;6217814;23;20039;-78
2022/11/16 00:08:40;;;;;;;25.42;13.52;;;;;;;;;;6217778;23;20441;-77
2022/11/16 00:11:14;;;;;;;26.25;14.23;;;;;;;;;;6245945;23;20004;-77
2022/11/16 00:13:40;;;;;;;22.10;13.20;;;;;;;;;;6244442;22;20489;-77
2022/11/16 00:16:06;;;;;;;21.77;12.45;;;;;;;;;;6242364;23;20439;-77
2022/11/16 00:18:31;;;;;;;24.45;13.05;;;;;;;;;;6242833;23;20351;-77
2022/11/16 00:20:57;;;;;;;22.33;13.18;;;;;;;;;;6243130;23;20001;-78
2022/11/16 00:23:22;;;;;;;22.92;12.82;;;;;;;;;;6244182;23;20427;-78
2022/11/16 00:25:48;;;;;;;25.42;13.77;;;;;;;;;;6244147;23;20004;-77
2022/11/16 00:28:14;;;;;;;22.88;13.23;;;;;;;;;;6242982;23;20004;-77
2022/11/16 00:30:39;;;;;;;23.30;12.80;;;;;;;;;;6245022;22;20007;-76
2022/11/16 00:33:05;;;;;;;24.02;12.77;;;;;;;;;;6246602;23;20343;-77
2022/11/16 00:35:30;;;;;;;23.50;12.38;;;;;;;;;;6244235;22;20039;-78
2022/11/16 00:37:56;;;;;;;22.27;12.38;;;;;;;;;;6242646;23;20011;-77
2022/11/16 00:40:21;;;;;;;22.95;12.98;;;;;;;;;;6243937;23;20079;-76
2022/11/16 00:42:47;;;;;;;22.10;12.65;;;;;;;;;;6259510;23;20011;-77
2022/11/16 00:45:12;;;;;;;25.98;12.75;;;;;;;;;;6243739;23;20428;-77
2022/11/16 00:47:38;;;;;;;23.17;12.65;;;;;;;;;;6242543;23;20015;-77
2022/11/16 00:50:04;;;;;;;24.83;12.32;;;;;;;;;;6244365;23;20008;-78
2022/11/16 00:52:29;;;;;;;22.75;12.88;;;;;;;;;;6271848;22;20069;-77
2022/11/16 00:54:55;;;;;;;24.65;12.30;;;;;;;;;;6245312;22;20067;-77
2022/11/16 00:57:21;;;;;;;24.85;12.93;;;;;;;;;;6244042;22;20004;-77
2022/11/16 00:59:47;;;;;;;25.42;13.35;;;;;;;;;;6243813;23;20413;-78
2022/11/16 01:02:12;;;;;;;23.58;12.93;;;;;;;;;;6242386;23;20389;-77
2022/11/16 01:04:38;;;;;;;24.42;12.90;;;;;;;;;;6243777;23;20000;-77
2022/11/16 01:07:03;;;;;;;26.58;13.77;;;;;;;;;;6243966;22;20000;-78
2022/11/16 01:09:29;;;;;;;24.50;12.75;;;;;;;;;;6242267;23;20083;-77
2022/11/16 01:12:09;;;;;;;28.75;14.35;;;;;;;;;;6243822;23;20004;-76
2022/11/16 01:14:39;;;;;;;26.70;12.77;;;;;;;;;;6244338;23;20000;-77
2022/11/16 01:17:05;;;;;;;26.52;13.15;;;;;;;;;;6244120;22;20486;-78
2022/11/16 01:19:30;;;;;;;27.02;13.45;;;;;;;;;;6243752;23;20004;-77
2022/11/16 01:21:56;;;;;;;25.73;13.65;;;;;;;;;;6243776;22;20431;-78
2022/11/16 01:24:22;;;;;;;23.80;12.52;;;;;;;;;;6243836;22;20064;-78
2022/11/16 01:26:47;;;;;;;28.33;14.15;;;;;;;;;;6243315;23;20019;-78
2022/11/16 01:29:13;;;;;;;27.75;13.82;;;;;;;;;;6243722;23;20011;-77
2022/11/16 01:31:38;;;;;;;27.48;13.73;;;;;;;;;;6244143;22;20027;-77
2022/11/16 01:34:04;;;;;;;27.60;13.52;;;;;;;;;;6249743;23;20006;-77
2022/11/16 01:36:29;;;;;;;27.13;14.25;;;;;;;;;;6248445;23;20007;-77
2022/11/16 01:38:55;;;;;;;31.40;13.60;;;;;;;;;;6243685;23;20005;-78
2022/11/16 01:41:23;;;;;;;25.00;14.18;;;;;;;;;;6243369;22;20031;-78
2022/11/16 01:44:15;;;;;;;28.10;13.32;;;;;;;;;;6242531;23;20423;-78
2022/11/16 01:46:40;;;;;;;29.42;14.32;;;;;;;;;;6200739;22;20012;-77
2022/11/16 01:49:11;;;;;;;30.48;13.82;;;;;;;;;;6244884;22;20008;-77
2022/11/16 01:51:36;;;;;;;29.88;15.07;;;;;;;;;;6219119;23;20007;-78
2022/11/16 01:54:03;;;;;;;27.13;14.27;;;;;;;;;;6252961;22;20040;-77
2022/11/16 01:56:30;;;;;;;29.50;14.77;;;;;;;;;;6223072;23;20012;-77
2022/11/16 01:58:55;;;;;;;29.98;13.98;;;;;;;;;;6244259;23;20004;-78
2022/11/16 02:01:21;;;;;;;28.42;14.02;;;;;;;;;;6245418;23;20022;-77
2022/11/16 02:03:47;;;;;;;29.20;13.43;;;;;;;;;;6245661;23;20083;-78
2022/11/16 02:06:29;;;;;;;30.60;14.38;;;;;;;;;;6245628;22;20008;-77
2022/11/16 02:11:57;;;;;;;28.02;14.38;;;;;;;;;;6245883;23;20375;-77
2022/11/16 02:14:33;;;;;;;31.67;15.07;;;;;;;;;;6245429;23;20058;-77
2022/11/16 02:17:15;;;;;;;37.30;16.77;;;;;;;;;;6246740;23;20008;-77
2022/11/16 02:20:19;;;;;;;38.30;16.42;;;;;;;;;;6245747;23;20000;-78
2022/11/16 02:23:06;;;;;;;31.08;14.32;;;;;;;;;;6211596;22;20008;-78
2022/11/16 02:25:38;;;;;;;32.63;15.48;;;;;;;;;;6245016;22;20007;-78
2022/11/16 02:28:37;;;;;;;33.55;14.70;;;;;;;;;;6245256;23;20007;-78
2022/11/16 02:31:04;;;;;;;29.42;14.70;;;;;;;;;;6244163;23;20343;-77
2022/11/16 02:33:32;;;;;;;35.95;15.70;;;;;;;;;;6243915;23;20000;-77
2022/11/16 02:35:58;;;;;;;29.77;14.60;;;;;;;;;;6245760;23;20024;-77
2022/11/16 02:38:26;;;;;;;37.35;14.02;;;;;;;;;;6221407;23;20000;-78
2022/11/16 02:40:54;;;;;;;34.85;15.32;;;;;;;;;;6218471;23;20004;-76
2022/11/16 02:43:25;;;;;;;30.98;15.20;;;;;;;;;;6219158;23;19996;-77
2022/11/16 02:45:50;;;;;;;29.23;14.93;;;;;;;;;;6219125;23;20031;-77
2022/11/16 02:48:20;;;;;;;31.65;15.27;;;;;;;;;;6218563;23;20003;-77
2022/11/16 02:50:45;;;;;;;32.45;14.85;;;;;;;;;;6243666;23;20031;-77
2022/11/16 02:53:11;;;;;;;32.15;14.13;;;;;;;;;;6243621;23;20074;-77
2022/11/16 02:55:36;;;;;;;31.67;15.07;;;;;;;;;;6243387;23;20007;-77
2022/11/16 02:58:06;;;;;;;32.85;15.15;;;;;;;;;;6222131;23;20383;-78
2022/11/16 03:00:42;;;;;;;32.97;15.20;;;;;;;;;;6244552;22;20392;-78
2022/11/16 03:03:44;;;;;;;31.65;15.00;;;;;;;;;;6219708;23;20382;-77
2022/11/16 03:06:23;;;;;;;30.83;14.43;;;;;;;;;;6244786;23;20082;-78
2022/11/16 03:09:08;;;;;;;30.67;14.18;;;;;;;;;;6219993;23;20016;-77
2022/11/16 03:14:21;;;;;;;28.98;14.52;;;;;;;;;;6222528;23;20387;-77
2022/11/16 03:16:55;;;;;;;33.42;14.65;;;;;;;;;;6243751;23;20086;-77
2022/11/16 03:19:25;;;;;;;32.70;15.02;;;;;;;;;;6223124;23;20011;-77
2022/11/16 03:21:53;;;;;;;30.57;14.77;;;;;;;;;;6243354;23;20276;-77
2022/11/16 03:24:19;;;;;;;28.85;14.43;;;;;;;;;;6242950;23;20420;-78
2022/11/16 03:27:02;;;;;;;32.20;15.82;;;;;;;;;;6217898;23;20054;-77
2022/11/16 03:29:33;;;;;;;32.72;15.25;;;;;;;;;;6243337;23;20058;-77
2022/11/16 03:32:09;;;;;;;29.40;14.90;;;;;;;;;;6243420;23;20000;-77
2022/11/16 03:34:34;;;;;;;27.90;14.23;;;;;;;;;;6243409;23;20004;-77
2022/11/16 03:37:00;;;;;;;30.58;15.85;;;;;;;;;;6243520;23;20495;-77
2022/11/16 03:39:29;;;;;;;29.80;15.32;;;;;;;;;;6248159;23;20420;-77
2022/11/16 03:41:55;;;;;;;31.70;14.93;;;;;;;;;;6194290;23;20007;-78
2022/11/16 03:44:20;;;;;;;35.15;15.93;;;;;;;;;;6243223;23;20427;-78
2022/11/16 03:46:46;;;;;;;32.55;15.10;;;;;;;;;;6217969;23;20405;-77
2022/11/16 03:49:11;;;;;;;31.27;15.35;;;;;;;;;;6253448;23;20087;-78
2022/11/16 03:51:37;;;;;;;33.35;15.38;;;;;;;;;;6244624;23;20000;-76
2022/11/16 03:54:03;;;;;;;33.97;15.45;;;;;;;;;;6242959;23;20004;-78
2022/11/16 03:56:29;;;;;;;28.75;14.52;;;;;;;;;;6244543;22;20003;-77
2022/11/16 03:58:55;;;;;;;35.28;16.15;;;;;;;;;;6269750;22;20028;-78
2022/11/16 04:01:20;;;;;;;34.85;16.05;;;;;;;;;;6251623;23;20320;-78
2022/11/16 04:03:46;;;;;;;30.60;15.02;;;;;;;;;;6244302;23;20036;-78
2022/11/16 04:25:53;;;;;;;32.33;15.50;;;;;;;;;;6244060;23;20019;-76
2022/11/16 04:28:21;;;;;;;35.25;16.00;;;;;;;;;;6243157;23;20347;-77
2022/11/16 04:39:03;;;;;;;34.55;15.40;;;;;;;;;;6244158;23;20431;-77
2022/11/16 04:44:14;;;;;;;32.95;15.23;;;;;;;;;;6244146;23;20059;-77
2022/11/16 04:49:23;;;;;;;30.20;14.43;;;;;;;;;;6244047;23;20047;-77
2022/11/16 04:51:49;;;;;;;32.88;15.35;;;;;;;;;;6242463;23;20000;-78
2022/11/16 04:54:14;;;;;;;32.33;15.05;;;;;;;;;;6243932;23;20414;-77
2022/11/16 04:56:40;;;;;;;30.27;15.13;;;;;;;;;;6242864;23;19996;-78
2022/11/16 04:59:05;;;;;;;32.65;14.70;;;;;;;;;;6242497;23;20517;-77
2022/11/16 05:04:15;;;;;;;32.53;14.80;;;;;;;;;;6245457;23;20016;-77
2022/11/16 05:06:40;;;;;;;33.33;15.23;;;;;;;;;;6243839;23;20004;-77
2022/11/16 05:09:05;;;;;;;30.55;15.55;;;;;;;;;;6243829;23;20070;-77
2022/11/16 05:11:31;;;;;;;32.10;15.10;;;;;;;;;;6244060;23;20043;-78
2022/11/16 05:13:56;;;;;;;32.78;15.15;;;;;;;;;;6242261;23;20427;-78
2022/11/16 05:16:22;;;;;;;32.85;16.35;;;;;;;;;;6243868;23;20424;-78
2022/11/16 05:20:59;;;;;;;34.75;15.85;;;;;;;;;;6242445;23;20428;-78
2022/11/16 05:21:33;;;;;;;33.95;14.88;;;;;;;;;;6221380;23;20004;-78
2022/11/16 05:26:42;;;;;;;32.42;15.43;;;;;;;;;;6246345;23;20015;-78
2022/11/16 05:29:07;;;;;;;35.42;15.70;;;;;;;;;;6246037;23;20083;-78
2022/11/16 05:31:33;;;;;;;43.05;16.15;;;;;;;;;;6245928;23;20011;-80
2022/11/16 05:33:58;;;;;;;34.75;16.52;;;;;;;;;;6245506;23;20051;-78
2022/11/16 05:36:24;;;;;;;36.85;16.55;;;;;;;;;;6244265;23;20009;-78
2022/11/16 05:38:49;;;;;;;34.22;16.23;;;;;;;;;;6245668;23;20039;-79
2022/11/16 05:41:15;;;;;;;34.95;15.25;;;;;;;;;;6245925;23;20062;-79
2022/11/16 05:43:40;;;;;;;33.45;15.15;;;;;;;;;;6251839;23;20007;-79
2022/11/16 05:46:06;;;;;;;37.58;15.52;;;;;;;;;;6249015;23;20410;-78
2022/11/16 05:48:31;;;;;;;35.33;15.80;;;;;;;;;;6216795;23;20004;-78
2022/11/16 05:51:03;;;;;;;31.15;14.57;;;;;;;;;;6243338;23;20011;-79
2022/11/16 05:53:29;;;;;;;36.15;15.70;;;;;;;;;;6240530;23;20007;-76
2022/11/16 05:55:54;;;;;;;33.90;15.45;;;;;;;;;;6241399;23;20004;-77
2022/11/16 05:58:19;;;;;;;33.80;15.98;;;;;;;;;;6242080;23;20000;-80
2022/11/16 06:00:46;;;;;;;39.33;15.52;;;;;;;;;;6263417;22;20099;-78
2022/11/16 06:03:11;;;;;;;34.95;14.77;;;;;;;;;;6239778;23;20024;-77
2022/11/16 06:05:37;;;;;;;35.40;15.85;;;;;;;;;;6220070;23;20019;-78
2022/11/16 06:08:02;;;;;;;38.75;15.55;;;;;;;;;;6238129;23;20098;-78
2022/11/16 06:10:28;;;;;;;38.53;16.65;;;;;;;;;;6239721;23;20008;-77
2022/11/16 06:12:53;;;;;;;36.80;15.60;;;;;;;;;;6238811;23;20013;-78
2022/11/16 06:15:19;;;;;;;34.67;15.57;;;;;;;;;;6238329;23;20004;-77
2022/11/16 06:17:45;;;;;;;32.92;16.05;;;;;;;;;;6237860;23;20052;-77
2022/11/16 06:20:11;;;;;;;37.47;16.30;;;;;;;;;;6237980;23;20008;-77
2022/11/16 06:22:37;;;;;;;41.03;16.33;;;;;;;;;;6245718;23;20083;-78
2022/11/16 06:25:09;;;;;;;34.47;15.75;;;;;;;;;;6244805;23;20087;-78
2022/11/16 06:27:38;;;;;;;32.88;15.43;;;;;;;;;;6243378;22;19997;-79
2022/11/16 06:30:05;;;;;;;41.78;16.08;;;;;;;;;;6241872;22;20087;-79
2022/11/16 06:32:30;;;;;;;45.47;16.73;;;;;;;;;;6241488;22;20058;-78
2022/11/16 06:34:56;;;;;;;47.60;16.70;;;;;;;;;;6240102;23;20008;-78
2022/11/16 06:37:21;;;;;;;39.33;16.65;;;;;;;;;;6243464;23;20000;-78
2022/11/16 06:39:47;;;;;;;41.83;17.45;;;;;;;;;;6243067;23;20078;-77
2022/11/16 06:42:12;;;;;;;41.88;17.20;;;;;;;;;;6253552;23;20000;-79
2022/11/16 06:44:48;;;;;;;39.97;17.17;;;;;;;;;;6248386;23;20447;-79
2022/11/16 06:47:16;;;;;;;37.60;15.55;;;;;;;;;;6238241;23;20016;-76
2022/11/16 06:50:01;;;;;;;37.55;16.75;;;;;;;;;;6240974;23;20343;-80
2022/11/16 06:52:27;;;;;;;99.63;18.40;;;;;;;;;;6239957;22;19996;-77
2022/11/16 06:54:52;;;;;;;44.38;18.02;;;;;;;;;;6237272;23;20367;-76
2022/11/16 06:57:18;;;;;;;38.53;15.98;;;;;;;;;;6243570;22;20008;-80
2022/11/16 06:59:44;;;;;;;35.55;16.58;;;;;;;;;;6243603;23;20007;-78
2022/11/16 07:02:10;;;;;;;36.65;16.58;;;;;;;;;;6250187;23;20008;-78
2022/11/16 07:04:35;;;;;;;37.20;15.45;;;;;;;;;;6217656;23;20004;-75
2022/11/16 07:07:00;;;;;;;39.45;16.83;;;;;;;;;;6241670;23;20011;-79
2022/11/16 07:09:26;;;;;;;41.22;16.98;;;;;;;;;;6239471;23;20004;-77
2022/11/16 07:11:52;;;;;;;36.08;16.50;;;;;;;;;;6237217;23;20466;-77
2022/11/16 07:14:17;;;;;;;40.70;17.25;;;;;;;;;;6240057;22;20022;-77
2022/11/16 07:16:43;;;;;;;39.17;16.92;;;;;;;;;;6238239;23;20004;-77
2022/11/16 07:19:09;;;;;;;36.65;16.92;;;;;;;;;;6240354;22;20339;-79
2022/11/16 07:21:35;;;;;;;35.88;16.85;;;;;;;;;;6240966;22;20398;-78
2022/11/16 07:24:01;;;;;;;36.70;16.92;;;;;;;;;;6240074;23;20062;-78
2022/11/16 07:26:27;;;;;;;35.00;16.05;;;;;;;;;;6238102;23;20480;-77
2022/11/16 07:28:53;;;;;;;33.88;16.58;;;;;;;;;;6266468;22;20005;-78
2022/11/16 07:31:18;;;;;;;35.60;16.83;;;;;;;;;;6243401;23;20158;-78
2022/11/16 07:33:44;;;;;;;36.78;16.98;;;;;;;;;;6243969;23;20004;-78
2022/11/16 07:36:13;;;;;;;38.85;17.13;;;;;;;;;;6241974;23;20048;-78
2022/11/16 07:38:38;;;;;;;36.60;16.38;;;;;;;;;;6243422;22;20008;-79
2022/11/16 07:41:17;;;;;;;37.38;16.90;;;;;;;;;;6245181;23;20479;-79
2022/11/16 07:43:43;;;;;;;35.60;17.15;;;;;;;;;;6244648;22;20004;-79
2022/11/16 07:46:16;;;;;;;34.03;16.33;;;;;;;;;;6238241;23;20083;-79
2022/11/16 07:48:41;;;;;;;45.15;18.00;;;;;;;;;;6212540;23;20035;-79
2022/11/16 07:51:08;;;;;;;36.53;16.70;;;;;;;;;;6239921;22;20015;-78
2022/11/16 07:53:34;;;;;;;37.83;17.65;;;;;;;;;;6237759;22;20004;-77
2022/11/16 07:55:59;;;;;;;35.00;16.88;;;;;;;;;;6210920;23;20309;-78
2022/11/16 07:58:26;;;;;;;35.50;16.90;;;;;;;;;;6234623;22;20000;-78
2022/11/16 08:00:51;;;;;;;37.20;16.27;;;;;;;;;;6241533;22;20091;-78
2022/11/16 08:03:17;;;;;;;35.05;16.15;;;;;;;;;;6238100;23;20011;-78
2022/11/16 08:05:43;;;;;;;36.55;16.45;;;;;;;;;;6237103;23;20009;-79
2022/11/16 08:08:09;;;;;;;37.78;16.58;;;;;;;;;;6236489;22;20095;-79
2022/11/16 08:10:35;;;;;;;31.73;16.90;;;;;;;;;;6236352;22;20239;-78
2022/11/16 08:13:00;;;;;;;32.42;16.58;;;;;;;;;;6234926;23;20391;-79
2022/11/16 08:15:26;;;;;;;36.67;17.08;;;;;;;;;;6236460;23;20390;-77
2022/11/16 08:17:51;;;;;;;33.13;16.25;;;;;;;;;;6237362;23;20380;-77
2022/11/16 08:20:17;;;;;;;36.33;16.27;;;;;;;;;;6240946;23;20000;-77
2022/11/16 08:22:43;;;;;;;34.45;15.88;;;;;;;;;;6240492;22;20419;-77
2022/11/16 08:25:09;;;;;;;33.00;16.08;;;;;;;;;;6241837;22;20001;-78
2022/11/16 08:27:35;;;;;;;36.58;18.30;;;;;;;;;;6236012;23;20327;-79
2022/11/16 08:30:02;;;;;;;35.88;19.33;;;;;;;;;;6235748;23;20566;-78
2022/11/16 08:32:28;;;;;;;42.63;19.17;;;;;;;;;;6238033;22;20004;-78
2022/11/16 08:34:54;;;;;;;38.30;18.42;;;;;;;;;;6240373;22;20471;-76
2022/11/16 08:37:20;;;;;;;33.65;15.88;;;;;;;;;;6237805;23;20007;-78
2022/11/16 08:39:45;;;;;;;28.80;15.88;;;;;;;;;;6247117;23;20012;-77
2022/11/16 08:42:10;;;;;;;44.58;21.50;;;;;;;;;;6240261;23;20004;-79
2022/11/16 08:44:36;;;;;;;32.75;15.68;;;;;;;;;;6242159;23;20093;-79
2022/11/16 08:47:01;;;;;;;28.23;14.88;;;;;;;;;;6238381;23;20012;-78
2022/11/16 08:49:30;;;;;;;29.63;15.20;;;;;;;;;;6237052;23;20004;-78
2022/11/16 08:51:55;;;;;;;35.25;17.20;;;;;;;;;;6238097;22;19997;-79
2022/11/16 08:54:21;;;;;;;33.05;16.25;;;;;;;;;;6236533;23;20087;-79
2022/11/16 08:56:47;;;;;;;34.67;17.45;;;;;;;;;;6237383;22;20000;-79
2022/11/16 08:59:13;;;;;;;37.75;16.83;;;;;;;;;;6239568;23;20008;-77
2022/11/16 09:01:39;;;;;;;32.53;16.70;;;;;;;;;;6239290;22;20007;-81
2022/11/16 09:04:10;;;;;;;38.53;20.80;;;;;;;;;;6240260;22;20016;-81
2022/11/16 09:06:35;;;;;;;31.90;16.52;;;;;;;;;;6208471;23;20004;-79
2022/11/16 09:09:01;;;;;;;39.08;19.35;;;;;;;;;;6234019;23;20008;-81
2022/11/16 09:11:27;;;;;;;42.28;19.20;;;;;;;;;;6234733;22;20000;-79
2022/11/16 09:13:53;;;;;;;43.47;18.65;;;;;;;;;;6236745;22;20030;-77
2022/11/16 09:16:19;;;;;;;40.10;19.88;;;;;;;;;;6209570;23;20363;-79
2022/11/16 09:18:46;;;;;;;38.35;19.83;;;;;;;;;;6237497;22;20004;-77
2022/11/16 09:21:11;;;;;;;31.02;16.08;;;;;;;;;;6240490;22;20293;-80
2022/11/16 09:23:37;;;;;;;45.33;17.98;;;;;;;;;;6239044;22;20004;-77
2022/11/16 09:26:03;;;;;;;36.83;17.85;;;;;;;;;;6237457;23;20073;-78
2022/11/16 09:28:28;;;;;;;33.20;17.65;;;;;;;;;;6237778;22;20073;-79
2022/11/16 09:31:00;;;;;;;31.17;17.20;;;;;;;;;;6212076;23;20431;-79
2022/11/16 09:33:29;;;;;;;34.58;18.55;;;;;;;;;;6237548;22;20004;-78
2022/11/16 09:36:00;;;;;;;35.05;16.75;;;;;;;;;;6214123;23;20781;-78
2022/11/16 09:38:26;;;;;;;31.35;16.23;;;;;;;;;;6193319;23;20103;-80
2022/11/16 09:40:51;;;;;;;29.55;15.43;;;;;;;;;;6213774;23;20000;-76
2022/11/16 09:43:24;;;;;;;31.55;16.48;;;;;;;;;;6215571;23;20011;-79
2022/11/16 09:46:04;;;;;;;33.60;16.05;;;;;;;;;;6240465;22;20516;-79
2022/11/16 09:51:07;;;;;;;30.05;15.25;;;;;;;;;;6240374;22;20023;-78
2022/11/16 09:53:48;;;;;;;34.30;15.48;;;;;;;;;;6183946;23;20019;-78
2022/11/16 09:56:21;;;;;;;29.27;15.18;;;;;;;;;;6184503;23;20000;-77
2022/11/16 09:59:01;;;;;;;26.38;15.02;;;;;;;;;;6208417;23;20012;-79
2022/11/16 10:01:54;;;;;;;28.23;14.47;;;;;;;;;;6213494;23;20083;-78
2022/11/16 10:04:29;;;;;;;24.13;14.05;;;;;;;;;;6213934;23;20004;-79
2022/11/16 10:06:57;;;;;;;26.52;15.20;;;;;;;;;;6208948;23;20325;-76
2022/11/16 10:09:24;;;;;;;33.40;16.80;;;;;;;;;;6185593;23;20011;-78
2022/11/16 10:12:05;;;;;;;28.17;15.10;;;;;;;;;;6221008;23;20471;-78
2022/11/16 10:15:01;;;;;;;29.88;16.83;;;;;;;;;;6241672;23;20125;-79
2022/11/16 10:17:45;;;;;;;34.13;18.27;;;;;;;;;;6203578;23;20008;-78
2022/11/16 10:20:35;;;;;;;30.50;16.42;;;;;;;;;;6239830;23;20066;-78
2022/11/16 10:23:22;;;;;;;34.95;18.90;;;;;;;;;;6217584;23;20039;-78
2022/11/16 10:26:04;;;;;;;39.55;20.30;;;;;;;;;;6239281;23;20076;-79
2022/11/16 10:28:58;;;;;;;42.35;21.00;;;;;;;;;;6215114;23;20004;-79
2022/11/16 10:32:06;;;;;;;36.95;19.33;;;;;;;;;;6243782;23;20031;-78
2022/11/16 10:35:00;;;;;;;43.85;21.17;;;;;;;;;;6213037;23;20004;-79
2022/11/16 10:37:31;;;;;;;37.65;20.10;;;;;;;;;;6241797;23;20175;-78
2022/11/16 10:39:56;;;;;;;34.55;18.38;;;;;;;;;;6255316;23;20057;-77
2022/11/16 10:42:27;;;;;;;35.67;19.02;;;;;;;;;;6197319;23;20008;-76
2022/11/16 10:45:01;;;;;;;35.22;18.38;;;;;;;;;;6218132;23;20059;-77
2022/11/16 10:47:50;;;;;;;37.17;18.00;;;;;;;;;;6200220;23;20007;-77
2022/11/16 10:50:37;;;;;;;40.05;19.98;;;;;;;;;;6223123;23;20436;-78
2022/11/16 10:53:03;;;;;;;40.25;20.85;;;;;;;;;;6159123;23;20502;-77
2022/11/16 10:55:28;;;;;;;42.83;20.88;;;;;;;;;;6188092;23;20015;-78
2022/11/16 10:58:01;;;;;;;37.63;18.95;;;;;;;;;;6213492;23;20091;-78
2022/11/16 11:00:39;;;;;;;41.13;19.63;;;;;;;;;;6211483;23;20433;-78
2022/11/16 11:03:04;;;;;;;38.17;19.10;;;;;;;;;;6210858;23;19997;-77
2022/11/16 11:05:30;;;;;;;43.35;19.83;;;;;;;;;;6157736;23;20602;-78
2022/11/16 11:08:06;;;;;;;38.53;20.35;;;;;;;;;;6182488;23;20012;-79
2022/11/16 11:10:41;;;;;;;40.13;20.48;;;;;;;;;;6182863;23;20032;-79
2022/11/16 11:13:18;;;;;;;44.25;19.92;;;;;;;;;;6184036;23;20017;-77
2022/11/16 11:15:44;;;;;;;43.33;21.23;;;;;;;;;;6166894;23;20012;-78
2022/11/16 11:18:23;;;;;;;36.40;19.40;;;;;;;;;;6215464;23;20425;-78
2022/11/16 11:21:05;;;;;;;36.97;20.23;;;;;;;;;;6211002;23;20084;-78
2022/11/16 11:23:37;;;;;;;36.72;19.75;;;;;;;;;;6210746;23;20407;-78
2022/11/16 11:26:03;;;;;;;35.97;18.98;;;;;;;;;;6184876;23;20009;-79
2022/11/16 11:28:32;;;;;;;39.55;20.15;;;;;;;;;;6184435;23;20104;-78
2022/11/16 11:31:27;;;;;;;31.55;16.95;;;;;;;;;;6182979;23;20142;-81
2022/11/16 11:33:57;;;;;;;40.97;18.58;;;;;;;;;;6197488;23;20016;-79
2022/11/16 11:36:43;;;;;;;39.67;20.90;;;;;;;;;;6183534;23;19993;-78
2022/11/16 11:39:12;;;;;;;42.25;20.23;;;;;;;;;;6156866;23;20008;-80
2022/11/16 11:41:42;;;;;;;40.47;19.30;;;;;;;;;;6209444;23;19993;-78
2022/11/16 11:44:14;;;;;;;35.53;18.70;;;;;;;;;;6205620;23;20001;-76
2022/11/16 11:46:43;;;;;;;35.85;18.83;;;;;;;;;;6206654;23;20099;-79
2022/11/16 11:49:15;;;;;;;36.70;18.30;;;;;;;;;;6155657;23;20004;-79
2022/11/16 11:51:41;;;;;;;37.95;19.67;;;;;;;;;;6133028;23;20005;-79
2022/11/16 11:54:10;;;;;;;38.33;20.08;;;;;;;;;;6215257;23;20019;-79
2022/11/16 11:56:35;;;;;;;42.25;21.08;;;;;;;;;;6158277;23;20008;-78
2022/11/16 11:59:02;;;;;;;43.15;19.98;;;;;;;;;;6209695;23;20007;-79
2022/11/16 12:01:31;;;;;;;35.75;19.15;;;;;;;;;;6184180;23;20008;-77
2022/11/16 12:04:21;;;;;;;38.65;19.58;;;;;;;;;;6211668;23;20004;-80
2022/11/16 12:07:09;;;;;;;38.45;19.35;;;;;;;;;;6160067;23;20009;-78
2022/11/16 12:09:55;;;;;;;37.92;19.27;;;;;;;;;;6187046;23;20005;-78
2022/11/16 12:12:46;;;;;;;34.00;17.92;;;;;;;;;;6170854;23;20035;-77
2022/11/16 12:15:51;;;;;;;34.55;18.15;;;;;;;;;;6187527;23;20004;-76
2022/11/16 12:18:44;;;;;;;37.65;17.85;;;;;;;;;;6147397;23;20005;-77
2022/11/16 12:21:09;;;;;;;36.38;18.45;;;;;;;;;;6159566;23;20371;-77
2022/11/16 12:23:56;;;;;;;34.63;18.50;;;;;;;;;;6182465;23;20000;-76
2022/11/16 12:26:36;;;;;;;41.65;19.08;;;;;;;;;;6158400;23;20158;-77
2022/11/16 12:29:23;;;;;;;34.10;18.37;;;;;;;;;;6161169;23;20016;-78
2022/11/16 12:32:09;;;;;;;38.22;20.90;;;;;;;;;;6218969;23;20259;-79
2022/11/16 12:34:46;;;;;;;39.38;19.77;;;;;;;;;;6209335;23;20407;-78
2022/11/16 12:37:42;;;;;;;38.55;19.60;;;;;;;;;;6180354;23;20104;-78
2022/11/16 12:40:52;;;;;;;37.40;19.98;;;;;;;;;;6179813;23;20343;-80
2022/11/16 12:43:26;;;;;;;36.50;19.35;;;;;;;;;;6084340;23;20394;-78
2022/11/16 12:46:00;;;;;;;34.78;19.65;;;;;;;;;;6084759;23;20425;-80
2022/11/16 12:48:48;;;;;;;35.47;18.42;;;;;;;;;;6135182;23;20005;-80
2022/11/16 12:51:41;;;;;;;35.70;18.40;;;;;;;;;;6217173;22;20213;-80
2022/11/16 12:54:21;;;;;;;36.97;19.25;;;;;;;;;;6184103;23;20005;-79
2022/11/16 12:56:47;;;;;;;48.00;27.88;;;;;;;;;;6159164;23;20001;-79
2022/11/16 12:59:46;;;;;;;38.08;20.27;;;;;;;;;;6210241;23;20001;-79
2022/11/16 13:02:36;;;;;;;34.17;19.17;;;;;;;;;;6210123;23;20001;-78
2022/11/16 13:05:12;;;;;;;32.60;17.63;;;;;;;;;;6185317;23;20008;-79
2022/11/16 13:07:47;;;;;;;32.30;17.15;;;;;;;;;;6163029;23;20066;-79
2022/11/16 13:10:17;;;;;;;34.63;18.23;;;;;;;;;;6168020;23;20055;-80
2022/11/16 13:12:44;;;;;;;31.38;17.88;;;;;;;;;;6217871;23;20140;-79
2022/11/16 13:15:18;;;;;;;33.65;18.02;;;;;;;;;;6162999;23;20001;-79
2022/11/16 13:17:49;;;;;;;31.00;17.38;;;;;;;;;;6138029;23;19997;-78
2022/11/16 13:20:18;;;;;;;33.30;18.75;;;;;;;;;;6199220;23;20539;-79
2022/11/16 13:22:50;;;;;;;35.03;18.40;;;;;;;;;;6188567;23;20339;-80
2022/11/16 13:25:32;;;;;;;39.53;17.30;;;;;;;;;;6165444;23;20012;-78
2022/11/16 13:28:10;;;;;;;31.30;16.42;;;;;;;;;;6187361;23;20009;-80
2022/11/16 13:31:07;;;;;;;36.70;16.55;;;;;;;;;;6224197;23;20025;-80
2022/11/16 13:33:41;;;;;;;30.30;16.80;;;;;;;;;;6178794;23;20040;-80
2022/11/16 13:36:31;;;;;;;29.55;14.98;;;;;;;;;;6183769;23;20016;-79
2022/11/16 13:38:57;;;;;;;27.63;15.63;;;;;;;;;;6182327;23;20387;-79
2022/11/16 13:41:34;;;;;;;29.77;15.82;;;;;;;;;;6185315;23;20288;-80
2022/11/16 13:44:01;;;;;;;32.88;16.75;;;;;;;;;;6186319;23;20011;-80
2022/11/16 13:46:46;;;;;;;38.38;19.75;;;;;;;;;;6186376;23;20139;-77
2022/11/16 13:49:40;;;;;;;37.92;17.25;;;;;;;;;;6164455;23;20005;-78
2022/11/16 13:52:10;;;;;;;30.10;15.35;;;;;;;;;;6171692;23;20016;-79
2022/11/16 13:54:39;;;;;;;32.75;15.15;;;;;;;;;;6138455;23;20005;-80
2022/11/16 13:57:40;;;;;;;31.60;17.13;;;;;;;;;;6213052;23;20220;-78
2022/11/16 14:00:09;;;;;;;30.73;16.60;;;;;;;;;;6183182;23;20028;-78
2022/11/16 14:02:39;;;;;;;36.70;19.65;;;;;;;;;;6161028;23;20416;-79
2022/11/16 14:05:51;;;;;;;32.70;17.25;;;;;;;;;;6185836;23;20001;-78
2022/11/16 14:08:25;;;;;;;31.52;16.88;;;;;;;;;;6208464;23;20524;-77
2022/11/16 14:10:51;;;;;;;34.17;17.75;;;;;;;;;;6191098;23;20004;-76
2022/11/16 14:13:34;;;;;;;31.90;18.13;;;;;;;;;;6214976;23;20502;-76
2022/11/16 14:16:18;;;;;;;43.72;21.15;;;;;;;;;;6214685;23;20150;-76
2022/11/16 14:18:48;;;;;;;41.80;19.17;;;;;;;;;;6215111;23;20007;-76
2022/11/16 14:21:44;;;;;;;44.10;21.00;;;;;;;;;;6163996;23;20062;-76
2022/11/16 14:24:38;;;;;;;37.65;20.77;;;;;;;;;;6214987;23;20478;-76
2022/11/16 14:27:15;;;;;;;42.28;22.27;;;;;;;;;;6165793;23;20039;-75
2022/11/16 14:30:08;;;;;;;42.03;20.92;;;;;;;;;;6214496;23;20092;-76
2022/11/16 14:32:35;;;;;;;37.17;19.50;;;;;;;;;;6215004;23;20067;-76
2022/11/16 14:35:03;;;;;;;38.95;19.55;;;;;;;;;;6163739;23;20004;-76
2022/11/16 14:37:32;;;;;;;51.53;22.15;;;;;;;;;;6163933;23;20011;-76
2022/11/16 14:40:04;;;;;;;61.80;25.23;;;;;;;;;;6215259;23;20011;-77
2022/11/16 14:42:31;;;;;;;43.65;21.23;;;;;;;;;;6188540;23;20071;-76
2022/11/16 14:45:01;;;;;;;44.55;21.40;;;;;;;;;;6163401;23;20001;-75
2022/11/16 14:47:27;;;;;;;;;;;;;;;;;;6188831;23;20004;-76
2022/11/16 14:49:53;;;;;;;34.97;18.70;;;;;;;;;;6214884;23;19918;-75
2022/11/16 14:52:50;;;;;;;38.72;18.95;;;;;;;;;;6188362;23;20059;-76
2022/11/16 14:55:25;;;;;;;36.88;18.77;;;;;;;;;;6164085;23;20004;-76
2022/11/16 14:58:09;;;;;;;37.75;19.80;;;;;;;;;;6188636;23;20100;-76
2022/11/16 15:00:35;;;;;;;37.97;19.52;;;;;;;;;;6214362;23;20072;-76
2022/11/16 15:03:00;;;;;;;39.85;20.25;;;;;;;;;;6187923;23;20428;-76
2022/11/16 15:05:27;;;;;;;40.38;20.10;;;;;;;;;;6188130;23;20139;-76
2022/11/16 15:07:52;;;;;;;42.65;20.05;;;;;;;;;;6163435;23;20462;-76
2022/11/16 15:10:20;;;;;;;45.80;19.48;;;;;;;;;;6214869;23;20008;-75
2022/11/16 15:12:50;;;;;;;43.13;19.67;;;;;;;;;;6188832;23;20004;-76
2022/11/16 15:15:25;;;;;;;37.00;18.77;;;;;;;;;;6164416;23;20043;-76
2022/11/16 15:17:57;;;;;;;38.50;18.65;;;;;;;;;;6164446;23;20012;-75
2022/11/16 15:20:23;;;;;;;38.90;18.27;;;;;;;;;;6214658;23;20039;-75
2022/11/16 15:22:59;;;;;;;36.65;18.85;;;;;;;;;;6188008;23;20336;-76
2022/11/16 15:25:34;;;;;;;39.60;18.52;;;;;;;;;;6188481;23;20000;-76
2022/11/16 15:28:15;;;;;;;42.90;20.20;;;;;;;;;;6187699;23;20032;-76
2022/11/16 15:30:40;;;;;;;42.92;20.65;;;;;;;;;;6215379;23;20316;-76